Time;durP1;ratioP1;P1;durP2;ratioP2;P2;SDS_P1;SDS_P2;PMS_P1;PMS_P2;Temp;Humidity;BMP_temperature;BMP_pressure;BME280_temperature;BME280_humidity;BME280_pressure;Samples;Min_cycle;Max_cycle;Signal;HPM_P1;HPM_P2
2022/12/25 00:02:05;;;;;;;0.00;0.00;;;;;;;4.68;100.00;100425.19;5051503;28;20231;-75
2022/12/25 00:04:30;;;;;;;0.27;0.27;;;;;;;4.75;100.00;100417.59;5051082;28;20630;-76
2022/12/25 00:06:55;;;;;;;0.00;0.00;;;;;;;4.71;100.00;100408.41;5051397;28;20232;-76
2022/12/25 00:09:21;;;;;;;0.00;0.00;;;;;;;4.79;100.00;100413.28;5051284;28;20175;-76
2022/12/25 00:11:46;;;;;;;1.77;1.30;;;;;;;4.83;100.00;100418.94;5051139;28;20182;-76
2022/12/25 00:14:11;;;;;;;0.00;0.00;;;;;;;4.79;100.00;100418.69;5066121;28;20302;-76
2022/12/25 00:16:37;;;;;;;0.00;0.00;;;;;;;4.78;100.00;100417.88;5050303;28;20615;-76
2022/12/25 00:19:02;;;;;;;0.00;0.00;;;;;;;4.70;100.00;100417.59;5050971;28;20185;-76
2022/12/25 00:21:28;;;;;;;0.00;0.00;;;;;;;4.67;100.00;100421.69;5052466;28;20171;-78
2022/12/25 00:23:55;;;;;;;0.00;0.00;;;;;;;4.84;100.00;100420.56;5058001;28;20175;-77
2022/12/25 00:26:21;;;;;;;0.00;0.00;;;;;;;4.77;100.00;100429.78;5050474;28;20183;-78
2022/12/25 00:28:46;;;;;;;0.00;0.00;;;;;;;4.63;100.00;100415.19;5049842;28;20182;-78
2022/12/25 00:31:16;;;;;;;0.93;0.93;;;;;;;4.69;100.00;100424.91;5051320;28;20194;-78
2022/12/25 00:33:44;;;;;;;0.00;0.00;;;;;;;4.51;100.00;100425.47;5051592;28;20232;-78
2022/12/25 00:36:10;;;;;;;0.00;0.00;;;;;;;4.57;100.00;100418.16;5051546;28;20171;-78
2022/12/25 00:38:38;;;;;;;0.00;0.00;;;;;;;4.58;100.00;100439.53;5051148;28;20179;-77
2022/12/25 00:41:15;;;;;;;12.77;2.47;;;;;;;4.45;100.00;100449.00;5050951;28;20229;-77
2022/12/25 00:43:41;;;;;;;3.10;2.10;;;;;;;4.47;100.00;100454.13;5050640;28;20567;-78
2022/12/25 00:46:07;;;;;;;0.50;0.50;;;;;;;4.57;100.00;100451.44;5050824;28;20167;-78
2022/12/25 00:48:33;;;;;;;0.60;0.60;;;;;;;4.67;100.00;100437.09;5049679;28;20209;-77
2022/12/25 00:51:01;;;;;;;7.50;0.87;;;;;;;4.85;100.00;100439.25;5050774;28;20183;-78
2022/12/25 00:53:27;;;;;;;2.53;2.33;;;;;;;4.95;100.00;100451.94;5065896;28;20261;-78
2022/12/25 00:55:55;;;;;;;18.30;4.93;;;;;;;5.06;100.00;100450.81;5050997;28;20211;-77
2022/12/25 00:58:21;;;;;;;1.27;1.20;;;;;;;5.16;100.00;100455.41;5050461;28;20182;-77
2022/12/25 01:00:48;;;;;;;2.00;1.83;;;;;;;5.25;100.00;100459.19;5050573;28;20526;-78
2022/12/25 01:03:13;;;;;;;10.10;1.00;;;;;;;5.38;100.00;100456.72;5050166;28;20274;-77
2022/12/25 01:05:39;;;;;;;1.03;1.03;;;;;;;5.38;100.00;100454.00;5051056;28;20671;-78
2022/12/25 01:08:04;;;;;;;0.00;0.00;;;;;;;5.37;100.00;100462.41;5050862;28;20178;-77
2022/12/25 01:10:29;;;;;;;0.00;0.00;;;;;;;5.35;100.00;100464.56;5050625;28;20179;-78
2022/12/25 01:12:55;;;;;;;2.10;2.00;;;;;;;5.37;100.00;100457.78;5050534;28;20179;-78
2022/12/25 01:15:20;;;;;;;3.00;2.00;;;;;;;5.37;100.00;100460.50;5050367;28;20203;-78
2022/12/25 01:17:46;;;;;;;3.37;2.27;;;;;;;5.46;100.00;100465.34;5050559;28;20190;-79
2022/12/25 01:20:14;;;;;;;1.73;0.93;;;;;;;5.66;100.00;100471.50;5050297;28;20190;-77
2022/12/25 01:22:39;;;;;;;1.23;1.17;;;;;;;5.69;100.00;100470.13;5049053;28;20224;-77
2022/12/25 01:25:05;;;;;;;1.70;1.27;;;;;;;5.75;100.00;100460.88;5050419;28;20256;-77
2022/12/25 01:27:32;;;;;;;4.67;1.40;;;;;;;5.73;100.00;100456.81;5050372;28;20210;-78
2022/12/25 01:29:57;;;;;;;5.10;1.63;;;;;;;5.72;100.00;100457.91;5049999;28;20172;-76
2022/12/25 01:32:23;;;;;;;1.90;1.60;;;;;;;5.74;100.00;100459.25;5050312;28;20182;-78
2022/12/25 01:34:48;;;;;;;0.00;0.00;;;;;;;5.76;100.00;100448.94;5050045;28;20237;-77
2022/12/25 01:37:14;;;;;;;3.30;2.13;;;;;;;5.75;100.00;100449.22;5050242;28;20234;-77
2022/12/25 01:39:39;;;;;;;0.20;0.20;;;;;;;5.85;100.00;100451.88;5065560;28;20175;-77
2022/12/25 01:42:04;;;;;;;0.30;0.30;;;;;;;5.87;100.00;100447.78;5050381;28;20254;-77
2022/12/25 01:44:36;;;;;;;0.30;0.30;;;;;;;5.87;100.00;100455.13;5048713;28;20227;-78
2022/12/25 01:47:06;;;;;;;0.00;0.00;;;;;;;5.93;100.00;100454.84;5048869;28;20171;-78
2022/12/25 01:49:34;;;;;;;0.57;0.57;;;;;;;5.93;100.00;100454.03;5050219;28;20569;-79
2022/12/25 01:52:09;;;;;;;0.00;0.00;;;;;;;5.93;100.00;100468.41;5050162;28;20183;-77
2022/12/25 01:54:40;;;;;;;0.00;0.00;;;;;;;5.85;100.00;100455.41;5049689;28;20204;-78
2022/12/25 01:57:10;;;;;;;0.00;0.00;;;;;;;5.83;100.00;100451.34;5050343;28;20182;-78
2022/12/25 01:59:35;;;;;;;0.00;0.00;;;;;;;5.82;100.00;100449.72;5065245;28;20230;-78
2022/12/25 02:02:00;;;;;;;0.00;0.00;;;;;;;5.80;100.00;100449.22;5050086;28;20207;-78
2022/12/25 02:04:38;;;;;;;0.00;0.00;;;;;;;5.78;100.00;100454.06;5048490;28;20232;-77
2022/12/25 02:07:21;;;;;;;0.93;0.40;;;;;;;5.82;100.00;100453.25;5048520;28;20182;-78
2022/12/25 02:09:47;;;;;;;0.77;0.20;;;;;;;5.82;100.00;100455.97;5049943;28;20202;-77
2022/12/25 02:12:18;;;;;;;0.93;0.90;;;;;;;5.84;100.00;100452.97;5049845;28;20179;-78
2022/12/25 02:14:46;;;;;;;0.00;0.00;;;;;;;5.87;100.00;100472.19;5052139;28;20199;-78
2022/12/25 02:17:20;;;;;;;0.00;0.00;;;;;;;5.82;100.00;100469.53;5053499;28;20175;-77
2022/12/25 02:20:42;;;;;;;0.13;0.10;;;;;;;5.94;100.00;100464.59;5053770;28;20253;-77
2022/12/25 02:23:43;;;;;;;0.70;0.67;;;;;;;6.04;100.00;100476.47;5010788;28;20186;-77
2022/12/25 02:26:33;;;;;;;0.00;0.00;;;;;;;6.03;100.00;100464.00;5053272;28;20175;-78
2022/12/25 02:29:14;;;;;;;0.00;0.00;;;;;;;6.00;100.00;100459.16;5053685;28;20172;-78
2022/12/25 02:32:11;;;;;;;0.00;0.00;;;;;;;5.89;100.00;100459.16;5053385;28;20177;-78
2022/12/25 02:34:58;;;;;;;0.00;0.00;;;;;;;6.09;100.00;100463.72;5053081;28;20708;-77
2022/12/25 02:37:34;;;;;;;0.00;0.00;;;;;;;6.15;100.00;100467.19;5053079;28;20650;-78
2022/12/25 02:40:19;;;;;;;0.30;0.30;;;;;;;6.22;100.00;100473.94;5053034;28;20178;-78
2022/12/25 03:08:13;;;;;;;0.53;0.53;;;;;;;6.29;100.00;100465.47;5052749;28;20194;-78
2022/12/25 03:13:34;;;;;;;2.90;2.57;;;;;;;6.13;100.00;100459.34;5052587;28;20320;-76
2022/12/25 03:18:44;;;;;;;12.63;1.80;;;;;;;6.01;100.00;100455.34;5052509;28;20208;-78
2022/12/25 03:26:55;;;;;;;0.00;0.00;;;;;;;5.93;100.00;100449.44;5023229;28;20248;-77
2022/12/25 03:32:17;;;;;;;0.13;0.13;;;;;;;5.82;100.00;100466.00;5052129;28;20174;-78
2022/12/25 04:37:43;;;;;;;1.17;1.17;;;;;;;6.19;100.00;100419.41;5050455;28;20661;-77
2022/12/25 04:40:08;;;;;;;0.30;0.20;;;;;;;6.28;100.00;100408.78;5066209;28;20183;-78
2022/12/25 04:42:34;;;;;;;0.20;0.20;;;;;;;6.30;100.00;100410.09;5050747;28;20309;-78
2022/12/25 04:44:59;;;;;;;0.80;0.77;;;;;;;6.38;100.00;100408.69;5050814;28;20184;-78
2022/12/25 04:47:24;;;;;;;3.07;2.57;;;;;;;6.43;100.00;100406.75;5050693;28;20174;-78
2022/12/25 04:49:49;;;;;;;7.80;2.70;;;;;;;6.52;100.00;100417.81;5050799;28;20215;-78
2022/12/25 04:52:15;;;;;;;9.73;2.33;;;;;;;6.59;100.00;100412.03;5050619;28;20686;-78
2022/12/25 04:54:40;;;;;;;1.00;1.00;;;;;;;6.61;100.00;100398.97;5050534;28;20202;-78
2022/12/25 04:57:05;;;;;;;0.97;0.97;;;;;;;6.72;100.00;100398.59;5050642;28;20473;-78
2022/12/25 04:59:31;;;;;;;0.53;0.53;;;;;;;6.80;100.00;100394.47;5050782;28;20685;-78
2022/12/25 05:01:56;;;;;;;6.70;2.60;;;;;;;6.82;100.00;100400.41;5050891;28;20175;-78
2022/12/25 05:04:22;;;;;;;0.20;0.20;;;;;;;6.85;100.00;100399.84;5050491;28;20183;-78
2022/12/25 05:06:47;;;;;;;2.37;2.17;;;;;;;6.88;100.00;100399.25;5050452;28;20172;-77
2022/12/25 05:09:12;;;;;;;0.37;0.37;;;;;;;6.94;100.00;100406.25;5050707;28;20548;-78
2022/12/25 05:11:38;;;;;;;0.90;0.80;;;;;;;6.95;100.00;100391.59;5050606;28;20262;-78
2022/12/25 05:14:03;;;;;;;0.53;0.53;;;;;;;7.00;100.00;100394.25;5048875;28;20711;-77
2022/12/25 05:16:28;;;;;;;9.50;2.33;;;;;;;7.04;100.00;100394.47;5050418;28;20163;-78
2022/12/25 05:18:54;;;;;;;0.93;0.57;;;;;;;7.10;100.00;100401.47;5050333;28;20206;-77
2022/12/25 05:21:19;;;;;;;0.00;0.00;;;;;;;7.09;100.00;100399.84;5050393;28;20221;-78
2022/12/25 05:23:48;;;;;;;1.07;0.83;;;;;;;7.16;100.00;100389.44;5050089;28;20179;-78
2022/12/25 05:26:15;;;;;;;2.53;1.33;;;;;;;7.19;100.00;100396.19;5050566;28;20167;-77
2022/12/25 05:28:42;;;;;;;0.53;0.53;;;;;;;7.21;100.00;100402.94;5050295;28;20202;-78
2022/12/25 05:31:07;;;;;;;1.07;0.97;;;;;;;7.25;100.00;100398.56;5050122;28;20199;-78
2022/12/25 05:33:32;;;;;;;0.73;0.73;;;;;;;7.27;100.00;100392.84;5050103;28;20272;-78
2022/12/25 05:36:02;;;;;;;4.20;2.30;;;;;;;7.27;100.00;100390.13;5050035;28;20234;-78
2022/12/25 05:38:28;;;;;;;0.10;0.10;;;;;;;7.29;100.00;100396.88;5050322;28;20172;-78
2022/12/25 05:40:53;;;;;;;14.27;2.20;;;;;;;7.31;100.00;100396.59;5050169;28;20516;-77
2022/12/25 05:43:18;;;;;;;0.10;0.10;;;;;;;7.31;100.00;100405.56;5049959;28;20175;-78
2022/12/25 05:45:44;;;;;;;1.90;1.90;;;;;;;7.33;100.00;100397.09;5049873;28;20209;-78
2022/12/25 05:48:10;;;;;;;0.90;0.90;;;;;;;7.29;100.00;100383.31;5050314;28;20244;-77
2022/12/25 05:50:37;;;;;;;0.37;0.37;;;;;;;7.32;100.00;100380.00;5053927;28;20510;-77
2022/12/25 05:53:10;;;;;;;0.00;0.00;;;;;;;7.31;100.00;100375.66;5053773;28;20229;-79
2022/12/25 05:55:37;;;;;;;0.00;0.00;;;;;;;7.25;100.00;100373.31;5085953;28;20199;-78
2022/12/25 05:58:03;;;;;;;0.00;0.00;;;;;;;7.22;100.00;100376.59;5053742;28;20171;-78
2022/12/25 06:00:28;;;;;;;0.40;0.40;;;;;;;7.23;100.00;100384.44;5054072;28;20190;-78
2022/12/25 06:02:54;;;;;;;0.37;0.27;;;;;;;7.20;100.00;100389.66;5053529;28;20279;-77
2022/12/25 06:05:19;;;;;;;0.13;0.13;;;;;;;7.19;100.00;100388.03;5053731;28;20243;-79
2022/12/25 06:07:44;;;;;;;0.00;0.00;;;;;;;7.19;100.00;100382.59;5053365;28;20177;-78
2022/12/25 06:10:10;;;;;;;0.27;0.27;;;;;;;7.11;100.00;100378.63;5053530;28;20181;-78
2022/12/25 06:12:35;;;;;;;0.00;0.00;;;;;;;7.07;100.00;100380.28;5053430;28;20176;-78
2022/12/25 06:15:00;;;;;;;0.40;0.17;;;;;;;7.08;100.00;100381.91;5053508;28;20207;-77
2022/12/25 06:17:26;;;;;;;0.03;0.03;;;;;;;7.13;100.00;100369.09;5053105;28;20175;-77
2022/12/25 06:19:53;;;;;;;8.20;1.50;;;;;;;7.22;100.00;100371.16;5053315;28;20175;-78
2022/12/25 06:22:18;;;;;;;0.13;0.13;;;;;;;7.27;100.00;100362.97;5053292;28;20186;-79
2022/12/25 06:24:43;;;;;;;7.43;0.73;;;;;;;7.28;100.00;100376.25;5055866;28;20186;-78
2022/12/25 06:27:09;;;;;;;0.10;0.10;;;;;;;7.24;100.00;100374.41;5073067;28;20616;-78
2022/12/25 06:29:34;;;;;;;0.00;0.00;;;;;;;7.32;100.00;100385.44;5073246;28;20170;-78
2022/12/25 06:31:59;;;;;;;0.00;0.00;;;;;;;7.29;100.00;100382.50;5073234;28;20183;-78
2022/12/25 06:34:25;;;;;;;0.00;0.00;;;;;;;7.34;100.00;100379.69;5071384;28;20206;-78
2022/12/25 06:36:51;;;;;;;9.90;2.73;;;;;;;7.39;100.00;100376.94;5072920;28;20209;-78
2022/12/25 06:39:16;;;;;;;0.47;0.47;;;;;;;7.40;100.00;100370.41;5072995;28;20223;-78
2022/12/25 06:41:42;;;;;;;0.50;0.50;;;;;;;7.45;100.00;100364.88;5072943;28;20182;-78
2022/12/25 06:44:07;;;;;;;0.00;0.00;;;;;;;7.46;100.00;100363.78;5072621;28;20182;-78
2022/12/25 06:46:33;;;;;;;0.00;0.00;;;;;;;7.46;100.00;100355.63;5072754;28;20186;-77
2022/12/25 06:48:59;;;;;;;0.00;0.00;;;;;;;7.51;100.00;100358.25;5073042;28;20576;-77
2022/12/25 06:51:27;;;;;;;1.07;0.53;;;;;;;7.47;100.00;100358.06;5073503;28;20171;-76
2022/12/25 06:53:53;;;;;;;0.00;0.00;;;;;;;7.51;100.00;100363.69;5073190;28;20186;-76
2022/12/25 06:56:22;;;;;;;0.00;0.00;;;;;;;7.44;100.00;100355.94;5076906;28;20220;-76
2022/12/25 06:58:50;;;;;;;0.07;0.07;;;;;;;7.28;100.00;100340.94;5073998;28;20171;-77
2022/12/25 07:01:20;;;;;;;0.00;0.00;;;;;;;7.32;100.00;100344.66;5073648;28;20261;-76
2022/12/25 07:03:48;;;;;;;0.00;0.00;;;;;;;7.19;100.00;100337.22;5073308;28;20197;-76
2022/12/25 07:06:14;;;;;;;0.00;0.00;;;;;;;7.10;100.00;100352.56;5072431;28;20178;-76
2022/12/25 07:08:40;;;;;;;0.00;0.00;;;;;;;7.11;100.00;100344.13;5072676;28;20181;-76
2022/12/25 07:11:06;;;;;;;0.00;0.00;;;;;;;7.13;100.00;100350.06;5072282;28;20650;-76
2022/12/25 07:13:31;;;;;;;0.00;0.00;;;;;;;7.12;100.00;100350.38;5071901;28;20179;-77
2022/12/25 07:15:57;;;;;;;0.00;0.00;;;;;;;7.21;100.00;100340.47;5072335;28;20233;-76
2022/12/25 07:18:23;;;;;;;2.57;1.50;;;;;;;7.20;100.00;100348.91;5072163;28;20626;-76
2022/12/25 07:20:48;;;;;;;0.00;0.00;;;;;;;7.17;100.00;100353.03;5072084;28;20181;-76
2022/12/25 07:23:13;;;;;;;0.00;0.00;;;;;;;7.13;100.00;100349.28;5071966;28;20249;-76
2022/12/25 07:25:39;;;;;;;0.53;0.53;;;;;;;7.15;100.00;100347.06;5071947;28;20175;-76
2022/12/25 07:28:04;;;;;;;0.00;0.00;;;;;;;7.13;100.00;100360.94;5071930;28;20179;-76
2022/12/25 07:30:29;;;;;;;0.50;0.50;;;;;;;7.11;100.00;100355.00;5072007;28;20483;-75
2022/12/25 07:32:55;;;;;;;0.00;0.00;;;;;;;7.09;100.00;100361.81;5071612;28;20170;-76
2022/12/25 07:35:20;;;;;;;0.00;0.00;;;;;;;7.04;100.00;100359.16;5070489;28;20206;-76
2022/12/25 07:37:46;;;;;;;0.00;0.00;;;;;;;7.04;100.00;100359.97;5071689;28;20224;-76
2022/12/25 07:40:11;;;;;;;0.00;0.00;;;;;;;7.08;100.00;100352.03;5071656;28;20178;-76
2022/12/25 07:42:37;;;;;;;0.50;0.40;;;;;;;7.06;100.00;100352.31;5071341;28;20175;-76
2022/12/25 07:45:02;;;;;;;0.27;0.00;;;;;;;7.11;100.00;100355.00;5071831;28;20223;-76
2022/12/25 07:47:28;;;;;;;0.00;0.00;;;;;;;7.19;100.00;100355.44;5070178;28;20492;-76
2022/12/25 07:49:53;;;;;;;0.00;0.00;;;;;;;7.23;100.00;100345.59;5071483;28;20658;-76
2022/12/25 07:52:18;;;;;;;0.00;0.00;;;;;;;7.24;100.00;100337.19;5071450;28;20181;-75
2022/12/25 07:54:43;;;;;;;0.00;0.00;;;;;;;7.12;100.00;100331.34;5071233;28;20263;-75
2022/12/25 07:57:09;;;;;;;0.17;0.17;;;;;;;7.12;100.00;100334.88;5072852;28;20171;-78
2022/12/25 07:59:34;;;;;;;0.00;0.00;;;;;;;7.13;100.00;100331.06;5078113;28;20204;-77
2022/12/25 08:01:59;;;;;;;0.00;0.00;;;;;;;7.14;100.00;100321.00;5074172;28;20167;-77
2022/12/25 08:04:24;;;;;;;0.30;0.30;;;;;;;7.23;100.00;100313.00;5071724;28;20201;-77
2022/12/25 08:06:50;;;;;;;0.00;0.00;;;;;;;7.17;100.00;100320.41;5071720;28;20177;-78
2022/12/25 08:09:15;;;;;;;0.00;0.00;;;;;;;7.23;100.00;100310.28;5071511;28;20171;-78
2022/12/25 08:11:45;;;;;;;0.00;0.00;;;;;;;7.20;100.00;100300.00;5070860;28;20704;-77
2022/12/25 08:14:10;;;;;;;0.63;0.60;;;;;;;7.15;100.00;100293.53;5071192;28;20723;-77
2022/12/25 08:16:40;;;;;;;0.60;0.60;;;;;;;7.22;100.00;100289.63;5071756;28;20228;-77
2022/12/25 08:19:05;;;;;;;0.10;0.10;;;;;;;7.29;100.00;100290.91;5071306;28;20167;-76
2022/12/25 08:21:31;;;;;;;0.30;0.30;;;;;;;7.34;100.00;100296.25;5070896;28;20198;-77
2022/12/25 08:23:56;;;;;;;0.00;0.00;;;;;;;7.30;100.00;100294.44;5071134;28;20247;-77
2022/12/25 08:26:22;;;;;;;23.13;2.20;;;;;;;7.31;100.00;100296.03;5073262;28;20181;-74
2022/12/25 08:28:48;;;;;;;0.10;0.10;;;;;;;7.34;100.00;100298.16;5071124;28;20650;-82
2022/12/25 08:31:20;;;;;;;2.47;0.47;;;;;;;7.45;100.00;100318.69;5070661;28;20182;-80
2022/12/25 08:33:46;;;;;;;0.00;0.00;;;;;;;7.46;100.00;100317.56;5070531;28;20186;-84
2022/12/25 08:36:12;;;;;;;0.30;0.13;;;;;;;7.50;100.00;100329.47;5070620;28;20555;-83
2022/12/25 08:38:38;;;;;;;2.67;2.57;;;;;;;7.57;100.00;100319.06;5070619;28;20505;-77
2022/12/25 08:41:04;;;;;;;0.00;0.00;;;;;;;7.58;100.00;100319.84;5070141;28;20182;-77
2022/12/25 08:43:30;;;;;;;1.50;0.73;;;;;;;7.65;100.00;100326.53;5068934;28;20545;-76
2022/12/25 08:45:55;;;;;;;0.53;0.30;;;;;;;7.68;100.00;100317.81;5069499;28;20182;-77
2022/12/25 08:48:21;;;;;;;0.00;0.00;;;;;;;7.73;100.00;100327.78;5070749;28;20533;-76
2022/12/25 08:50:48;;;;;;;0.10;0.10;;;;;;;7.79;100.00;100325.78;5071263;28;20171;-77
2022/12/25 08:53:14;;;;;;;0.00;0.00;;;;;;;7.80;100.00;100325.50;5070835;28;20189;-77
2022/12/25 08:55:39;;;;;;;1.87;1.73;;;;;;;7.86;100.00;100318.06;5069493;28;20240;-76
2022/12/25 08:58:05;;;;;;;0.40;0.20;;;;;;;7.82;100.00;100320.59;5071087;28;20265;-76
2022/12/25 09:00:30;;;;;;;6.57;2.90;;;;;;;7.91;100.00;100334.31;5070939;28;20642;-76
2022/12/25 09:02:55;;;;;;;0.83;0.83;;;;;;;7.95;100.00;100338.03;5070462;28;20638;-76
2022/12/25 09:05:21;;;;;;;0.10;0.10;;;;;;;7.94;100.00;100339.16;5070832;28;20167;-76
2022/12/25 09:07:46;;;;;;;0.00;0.00;;;;;;;7.91;100.00;100340.56;5070583;28;20202;-75
2022/12/25 09:10:11;;;;;;;0.00;0.00;;;;;;;7.88;100.00;100324.81;5070651;28;20797;-76
2022/12/25 09:12:37;;;;;;;0.00;0.00;;;;;;;7.88;100.00;100316.66;5070647;28;20178;-76
2022/12/25 09:15:03;;;;;;;0.00;0.00;;;;;;;7.95;100.00;100313.56;5070489;28;20198;-76
2022/12/25 09:17:29;;;;;;;0.30;0.30;;;;;;;7.90;100.00;100309.03;5070246;28;20637;-77
2022/12/25 09:19:54;;;;;;;0.50;0.50;;;;;;;7.99;100.00;100304.53;5070349;28;20270;-76
2022/12/25 09:22:20;;;;;;;0.20;0.20;;;;;;;8.04;100.00;100301.72;5070960;28;20178;-76
2022/12/25 09:24:45;;;;;;;0.03;0.03;;;;;;;8.04;100.00;100301.72;5074512;28;20548;-76
2022/12/25 09:27:10;;;;;;;2.37;0.80;;;;;;;8.08;100.00;100310.06;5074584;28;20231;-76
2022/12/25 09:29:37;;;;;;;0.00;0.00;;;;;;;8.13;100.00;100320.91;5074747;28;20177;-76
2022/12/25 09:32:03;;;;;;;0.30;0.30;;;;;;;8.15;100.00;100318.69;5074857;28;20175;-76
2022/12/25 09:34:28;;;;;;;0.00;0.00;;;;;;;8.19;100.00;100325.13;5074291;28;20583;-76
2022/12/25 09:36:53;;;;;;;4.73;4.37;;;;;;;8.23;100.00;100334.31;5073172;28;20180;-77
2022/12/25 09:39:19;;;;;;;0.00;0.00;;;;;;;8.30;100.00;100340.19;5074456;28;20638;-76
2022/12/25 09:42:04;;;;;;;21.77;0.87;;;;;;;8.26;100.00;100331.00;5074503;28;20170;-76
2022/12/25 09:44:39;;;;;;;0.00;0.00;;;;;;;8.38;100.00;100340.63;5074330;28;20347;-77
2022/12/25 09:47:09;;;;;;;0.17;0.17;;;;;;;8.49;100.00;100344.78;5074226;28;20467;-76
2022/12/25 09:49:57;;;;;;;0.10;0.10;;;;;;;8.56;100.00;100340.59;5074256;28;20197;-75
2022/12/25 09:52:41;;;;;;;0.00;0.00;;;;;;;8.61;100.00;100348.66;5073160;28;20181;-76
2022/12/25 09:55:13;;;;;;;1.07;0.97;;;;;;;8.68;100.00;100341.97;5072362;28;20614;-77
2022/12/25 09:57:38;;;;;;;0.00;0.00;;;;;;;8.63;100.00;100330.09;5074011;28;20634;-76
2022/12/25 10:00:13;;;;;;;0.00;0.00;;;;;;;8.62;100.00;100333.91;5074492;28;20210;-76
2022/12/25 10:02:51;;;;;;;0.00;0.00;;;;;;;8.67;100.00;100324.03;5073236;28;20695;-76
2022/12/25 10:05:19;;;;;;;0.00;0.00;;;;;;;8.67;100.00;100318.59;5073217;28;20185;-75
2022/12/25 10:08:01;;;;;;;0.00;0.00;;;;;;;8.71;100.00;100334.03;5072248;28;20274;-76
2022/12/25 10:10:45;;;;;;;0.30;0.30;;;;;;;8.52;100.00;100316.97;5073583;28;20250;-75
2022/12/25 10:13:23;;;;;;;0.00;0.00;;;;;;;8.44;100.00;100293.16;5071798;28;20182;-76
2022/12/25 10:16:18;;;;;;;0.00;0.00;;;;;;;8.41;100.00;100289.13;5073539;28;20255;-76
2022/12/25 10:18:56;;;;;;;0.00;0.00;;;;;;;8.33;100.00;100278.91;5001371;28;20199;-75
2022/12/25 10:21:22;;;;;;;3.07;0.10;;;;;;;8.30;100.00;100261.25;5073718;28;20167;-75
2022/12/25 10:23:51;;;;;;;0.00;0.00;;;;;;;8.40;100.00;100260.31;5072944;28;20185;-75
2022/12/25 10:26:20;;;;;;;0.00;0.00;;;;;;;8.54;100.00;100246.69;5073054;28;20668;-76
2022/12/25 10:28:57;;;;;;;0.00;0.00;;;;;;;8.55;100.00;100229.25;5072985;28;20174;-76
2022/12/25 10:31:28;;;;;;;3.10;2.90;;;;;;;8.56;100.00;100231.66;5072771;28;20712;-76
2022/12/25 10:33:54;;;;;;;0.00;0.00;;;;;;;8.63;100.00;100234.78;5072267;28;20167;-76
2022/12/25 10:36:23;;;;;;;0.00;0.00;;;;;;;8.63;100.00;100225.78;5072541;28;20649;-75
2022/12/25 10:38:48;;;;;;;0.00;0.00;;;;;;;8.58;100.00;100225.91;5072981;28;20201;-75
2022/12/25 10:41:51;;;;;;;2.97;2.30;;;;;;;8.67;100.00;100226.00;5072661;28;20634;-76
2022/12/25 10:44:19;;;;;;;0.27;0.10;;;;;;;8.69;100.00;100223.78;5071134;28;20206;-76
2022/12/25 10:46:50;;;;;;;0.00;0.00;;;;;;;8.78;100.00;100230.94;5072663;28;20171;-79
2022/12/25 10:49:18;;;;;;;0.27;0.27;;;;;;;8.68;100.00;100223.00;5074313;28;20178;-77
2022/12/25 10:51:43;;;;;;;0.10;0.10;;;;;;;8.60;100.00;100220.97;5078200;28;20194;-78
2022/12/25 10:54:18;;;;;;;0.00;0.00;;;;;;;8.71;100.00;100227.00;5072284;28;20174;-78
2022/12/25 10:56:55;;;;;;;0.00;0.00;;;;;;;8.78;100.00;100244.53;5072789;28;20185;-78
2022/12/25 10:59:22;;;;;;;0.00;0.00;;;;;;;8.78;100.00;100254.63;5072866;28;20220;-78
2022/12/25 11:01:47;;;;;;;0.00;0.00;;;;;;;8.81;100.00;100249.38;5072554;28;20221;-78
2022/12/25 11:04:34;;;;;;;0.00;0.00;;;;;;;8.94;100.00;100259.47;5072096;28;20257;-78
2022/12/25 11:07:18;;;;;;;0.10;0.10;;;;;;;8.80;100.00;100260.59;5071217;28;20492;-78
2022/12/25 11:10:27;;;;;;;0.00;0.00;;;;;;;8.95;100.00;100265.72;5072620;28;20202;-78
2022/12/25 11:12:53;;;;;;;0.00;0.00;;;;;;;8.99;100.00;100260.47;5051227;28;20178;-78
2022/12/25 11:15:40;;;;;;;0.00;0.00;;;;;;;9.00;100.00;100262.09;5071257;28;20206;-78
2022/12/25 11:18:23;;;;;;;0.00;0.00;;;;;;;9.03;100.00;100265.00;5072343;28;20235;-78
2022/12/25 11:20:52;;;;;;;0.77;0.77;;;;;;;9.00;100.00;100253.91;5072116;28;20249;-78
2022/12/25 11:23:20;;;;;;;5.30;1.40;;;;;;;9.01;100.00;100239.19;5071856;28;20672;-78
2022/12/25 11:26:06;;;;;;;0.13;0.13;;;;;;;9.04;100.00;100233.91;5072296;28;20252;-78
2022/12/25 11:28:34;;;;;;;0.40;0.40;;;;;;;8.96;100.00;100234.63;5071884;28;20217;-78
2022/12/25 11:31:04;;;;;;;0.00;0.00;;;;;;;8.93;100.00;100235.25;5072238;28;20214;-78
2022/12/25 11:33:43;;;;;;;0.10;0.10;;;;;;;8.96;100.00;100234.63;5071508;28;20187;-78
2022/12/25 11:36:18;;;;;;;0.77;0.77;;;;;;;8.95;100.00;100238.47;5071705;28;20206;-77
2022/12/25 11:38:44;;;;;;;0.00;0.00;;;;;;;8.93;100.00;100224.34;5071723;28;20236;-78
2022/12/25 11:41:11;;;;;;;0.00;0.00;;;;;;;8.92;100.00;100223.53;5070346;28;20629;-77
2022/12/25 11:43:47;;;;;;;1.80;1.20;;;;;;;8.99;100.00;100230.50;5071793;28;20239;-78
2022/12/25 11:46:25;;;;;;;0.00;0.00;;;;;;;9.00;100.00;100230.19;5070591;28;20647;-77
2022/12/25 11:48:56;;;;;;;0.00;0.00;;;;;;;9.04;100.00;100222.22;5071740;28;20186;-79
2022/12/25 11:51:31;;;;;;;0.00;0.00;;;;;;;9.07;100.00;100216.16;5070251;28;20174;-78
2022/12/25 11:54:10;;;;;;;0.37;0.37;;;;;;;9.10;100.00;100221.78;5070692;28;20273;-78
2022/12/25 11:56:36;;;;;;;0.00;0.00;;;;;;;9.08;100.00;100226.72;5070029;28;20293;-78
2022/12/25 11:59:26;;;;;;;0.00;0.00;;;;;;;9.06;100.00;100215.34;5071421;28;20262;-78
2022/12/25 12:02:01;;;;;;;0.00;0.00;;;;;;;9.05;100.00;100191.13;5071944;28;20178;-77
2022/12/25 12:04:31;;;;;;;1.50;1.50;;;;;;;9.10;100.00;100186.34;5070783;28;20625;-78
2022/12/25 12:07:06;;;;;;;0.23;0.23;;;;;;;9.02;100.00;100178.13;5071078;28;20221;-78
2022/12/25 12:09:53;;;;;;;0.87;0.87;;;;;;;9.05;100.00;100174.78;5071103;28;20268;-78
2022/12/25 12:12:22;;;;;;;0.00;0.00;;;;;;;9.07;100.00;100170.63;5071026;28;20174;-77
2022/12/25 12:15:12;;;;;;;0.10;0.10;;;;;;;9.04;100.00;100152.16;5069303;28;20561;-78
2022/12/25 12:17:38;;;;;;;0.00;0.00;;;;;;;8.95;100.00;100154.81;5070865;28;20171;-77
2022/12/25 12:20:33;;;;;;;0.00;0.00;;;;;;;8.94;100.00;100152.38;5071098;28;20699;-79
2022/12/25 12:23:02;;;;;;;0.00;0.00;;;;;;;8.89;100.00;100147.06;5048581;28;20539;-79
2022/12/25 12:25:29;;;;;;;0.10;0.10;;;;;;;8.99;100.00;100135.16;5070866;28;20170;-78
2022/12/25 12:27:57;;;;;;;0.00;0.00;;;;;;;8.88;100.00;100129.91;5070988;28;20527;-77
2022/12/25 12:30:25;;;;;;;0.00;0.00;;;;;;;8.98;100.00;100128.88;5070875;28;20206;-78
2022/12/25 12:32:53;;;;;;;0.10;0.10;;;;;;;8.93;100.00;100127.06;5070510;28;20178;-78
2022/12/25 12:35:21;;;;;;;0.00;0.00;;;;;;;8.83;100.00;100124.59;5070653;28;20548;-78
2022/12/25 12:37:52;;;;;;;0.00;0.00;;;;;;;8.74;100.00;100115.53;5070621;28;20249;-78
2022/12/25 12:40:25;;;;;;;0.00;0.00;;;;;;;8.84;100.00;100109.06;5070876;28;20184;-77
2022/12/25 12:42:51;;;;;;;0.83;0.83;;;;;;;8.81;100.00;100105.00;5070369;28;20417;-79
2022/12/25 12:45:22;;;;;;;0.00;0.00;;;;;;;8.78;100.00;100089.28;5070601;28;20649;-78
2022/12/25 12:47:50;;;;;;;0.33;0.33;;;;;;;8.79;100.00;100096.34;5069251;28;20170;-79
2022/12/25 12:50:29;;;;;;;5.93;2.10;;;;;;;8.80;100.00;100084.34;5069051;28;20182;-78
2022/12/25 12:52:55;;;;;;;3.80;3.60;;;;;;;8.80;100.00;100078.88;5070516;28;20170;-76
2022/12/25 12:55:32;;;;;;;0.17;0.17;;;;;;;8.81;100.00;100082.41;5070544;28;20225;-78
2022/12/25 12:58:00;;;;;;;1.40;0.93;;;;;;;8.74;100.00;100082.84;5071006;28;20240;-75
2022/12/25 13:00:35;;;;;;;0.00;0.00;;;;;;;8.74;100.00;100071.16;5072417;28;20224;-76
2022/12/25 13:03:32;;;;;;;0.00;0.00;;;;;;;8.70;100.00;100072.91;5070490;28;20588;-75
2022/12/25 13:06:21;;;;;;;0.00;0.00;;;;;;;8.76;100.00;100053.38;5070850;28;20256;-76
2022/12/25 13:08:49;;;;;;;0.10;0.10;;;;;;;8.70;100.00;100067.44;5070199;28;20179;-75
2022/12/25 13:11:27;;;;;;;0.00;0.00;;;;;;;8.77;100.00;100065.09;5070430;28;20530;-75
2022/12/25 13:13:55;;;;;;;4.23;0.90;;;;;;;8.75;100.00;100062.69;5068473;28;20182;-76
2022/12/25 13:16:26;;;;;;;0.17;0.17;;;;;;;8.69;100.00;100072.09;5070183;28;20488;-76
2022/12/25 13:18:53;;;;;;;0.00;0.00;;;;;;;8.62;100.00;100077.94;5070098;28;20237;-76